sensor_id;sensor_type;location;lat;lon;timestamp;temperature;humidity
7518;DHT22;3800;48.922;9.444;2022-09-30T00:02:27;7.00;99.90
7518;DHT22;3800;48.922;9.444;2022-09-30T00:04:55;7.00;99.90
7518;DHT22;3800;48.922;9.444;2022-09-30T00:07:23;7.00;99.90
7518;DHT22;3800;48.922;9.444;2022-09-30T00:09:51;6.90;99.90
7518;DHT22;3800;48.922;9.444;2022-09-30T00:12:20;6.90;99.90
7518;DHT22;3800;48.922;9.444;2022-09-30T00:14:49;6.90;99.90
7518;DHT22;3800;48.922;9.444;2022-09-30T00:17:17;6.90;99.90
7518;DHT22;3800;48.922;9.444;2022-09-30T00:19:45;6.90;99.90
7518;DHT22;3800;48.922;9.444;2022-09-30T00:22:14;6.90;99.90
7518;DHT22;3800;48.922;9.444;2022-09-30T00:24:42;6.90;99.90
7518;DHT22;3800;48.922;9.444;2022-09-30T00:27:10;6.80;99.90
7518;DHT22;3800;48.922;9.444;2022-09-30T00:29:39;6.80;99.90
7518;DHT22;3800;48.922;9.444;2022-09-30T00:32:09;6.80;99.90
7518;DHT22;3800;48.922;9.444;2022-09-30T00:34:37;6.80;99.90
7518;DHT22;3800;48.922;9.444;2022-09-30T00:37:05;6.70;99.90
7518;DHT22;3800;48.922;9.444;2022-09-30T00:39:33;6.70;99.90
7518;DHT22;3800;48.922;9.444;2022-09-30T00:42:02;6.70;99.90
7518;DHT22;3800;48.922;9.444;2022-09-30T00:44:43;6.60;99.90
7518;DHT22;3800;48.922;9.444;2022-09-30T00:47:29;6.60;99.90
7518;DHT22;3800;48.922;9.444;2022-09-30T00:50:21;6.60;99.90
7518;DHT22;3800;48.922;9.444;2022-09-30T00:52:58;6.60;99.90
7518;DHT22;3800;48.922;9.444;2022-09-30T00:55:40;6.60;99.90
7518;DHT22;3800;48.922;9.444;2022-09-30T00:58:07;6.50;99.90
7518;DHT22;3800;48.922;9.444;2022-09-30T01:00:35;6.50;99.90
7518;DHT22;3800;48.922;9.444;2022-09-30T01:03:03;6.50;99.90
7518;DHT22;3800;48.922;9.444;2022-09-30T01:05:32;6.40;99.90
7518;DHT22;3800;48.922;9.444;2022-09-30T01:08:01;6.40;99.90
7518;DHT22;3800;48.922;9.444;2022-09-30T01:10:30;6.30;99.90
7518;DHT22;3800;48.922;9.444;2022-09-30T01:12:59;6.30;99.90
7518;DHT22;3800;48.922;9.444;2022-09-30T01:15:31;6.20;99.90
7518;DHT22;3800;48.922;9.444;2022-09-30T01:18:02;6.20;99.90
7518;DHT22;3800;48.922;9.444;2022-09-30T01:20:59;6.20;99.90
7518;DHT22;3800;48.922;9.444;2022-09-30T01:29:53;6.10;99.90
7518;DHT22;3800;48.922;9.444;2022-09-30T01:32:53;6.10;99.90
7518;DHT22;3800;48.922;9.444;2022-09-30T01:35:57;6.00;99.90
7518;DHT22;3800;48.922;9.444;2022-09-30T01:38:27;6.00;99.90
7518;DHT22;3800;48.922;9.444;2022-09-30T01:42:08;5.90;99.90
7518;DHT22;3800;48.922;9.444;2022-09-30T01:44:02;5.90;99.90
7518;DHT22;3800;48.922;9.444;2022-09-30T01:46:41;5.90;99.90
7518;DHT22;3800;48.922;9.444;2022-09-30T01:49:26;6.00;99.90
7518;DHT22;3800;48.922;9.444;2022-09-30T01:52:00;5.90;99.90
7518;DHT22;3800;48.922;9.444;2022-09-30T01:54:31;5.90;99.90
7518;DHT22;3800;48.922;9.444;2022-09-30T01:57:04;5.90;99.90
7518;DHT22;3800;48.922;9.444;2022-09-30T01:59:50;5.90;99.90
7518;DHT22;3800;48.922;9.444;2022-09-30T02:02:23;5.90;99.90
7518;DHT22;3800;48.922;9.444;2022-09-30T02:04:54;5.90;99.90
7518;DHT22;3800;48.922;9.444;2022-09-30T02:07:25;5.90;99.90
7518;DHT22;3800;48.922;9.444;2022-09-30T02:09:58;5.90;99.90
7518;DHT22;3800;48.922;9.444;2022-09-30T02:12:28;6.00;99.90
7518;DHT22;3800;48.922;9.444;2022-09-30T02:15:12;6.00;99.90
7518;DHT22;3800;48.922;9.444;2022-09-30T02:17:45;6.00;99.90
7518;DHT22;3800;48.922;9.444;2022-09-30T02:20:16;6.00;99.90
7518;DHT22;3800;48.922;9.444;2022-09-30T02:22:45;6.00;99.90
7518;DHT22;3800;48.922;9.444;2022-09-30T02:25:16;6.00;99.90
7518;DHT22;3800;48.922;9.444;2022-09-30T02:27:45;6.00;99.90
7518;DHT22;3800;48.922;9.444;2022-09-30T02:30:12;6.10;99.90
7518;DHT22;3800;48.922;9.444;2022-09-30T02:32:47;6.10;99.90
7518;DHT22;3800;48.922;9.444;2022-09-30T02:35:21;6.10;99.90
7518;DHT22;3800;48.922;9.444;2022-09-30T02:37:51;6.10;99.90
7518;DHT22;3800;48.922;9.444;2022-09-30T02:40:36;6.10;99.90
7518;DHT22;3800;48.922;9.444;2022-09-30T02:43:03;6.00;99.90
7518;DHT22;3800;48.922;9.444;2022-09-30T02:45:35;6.00;99.90
7518;DHT22;3800;48.922;9.444;2022-09-30T02:49:14;6.00;99.90
7518;DHT22;3800;48.922;9.444;2022-09-30T02:50:50;6.00;99.90
7518;DHT22;3800;48.922;9.444;2022-09-30T02:53:25;6.00;99.90
7518;DHT22;3800;48.922;9.444;2022-09-30T02:56:18;6.00;99.90
7518;DHT22;3800;48.922;9.444;2022-09-30T02:58:43;6.00;99.90
7518;DHT22;3800;48.922;9.444;2022-09-30T03:01:12;6.00;99.90
7518;DHT22;3800;48.922;9.444;2022-09-30T03:03:49;6.00;99.90
7518;DHT22;3800;48.922;9.444;2022-09-30T03:06:17;6.00;99.90
7518;DHT22;3800;48.922;9.444;2022-09-30T03:08:46;6.00;99.90
7518;DHT22;3800;48.922;9.444;2022-09-30T03:11:17;6.00;99.90
7518;DHT22;3800;48.922;9.444;2022-09-30T03:17:12;6.00;99.90
7518;DHT22;3800;48.922;9.444;2022-09-30T03:19:51;6.00;99.90
7518;DHT22;3800;48.922;9.444;2022-09-30T03:25:29;6.00;99.90
7518;DHT22;3800;48.922;9.444;2022-09-30T03:28:08;6.00;99.90
7518;DHT22;3800;48.922;9.444;2022-09-30T03:30:44;6.00;99.90
7518;DHT22;3800;48.922;9.444;2022-09-30T03:33:21;6.00;99.90
7518;DHT22;3800;48.922;9.444;2022-09-30T03:35:59;6.00;99.90
7518;DHT22;3800;48.922;9.444;2022-09-30T03:38:45;5.90;99.90
7518;DHT22;3800;48.922;9.444;2022-09-30T03:41:26;5.90;99.90
7518;DHT22;3800;48.922;9.444;2022-09-30T03:44:10;5.90;99.90
7518;DHT22;3800;48.922;9.444;2022-09-30T03:46:43;5.80;99.90
7518;DHT22;3800;48.922;9.444;2022-09-30T03:49:14;5.80;99.90
7518;DHT22;3800;48.922;9.444;2022-09-30T03:51:41;5.80;99.90
7518;DHT22;3800;48.922;9.444;2022-09-30T03:54:09;5.80;99.90
7518;DHT22;3800;48.922;9.444;2022-09-30T03:56:37;5.80;99.90
7518;DHT22;3800;48.922;9.444;2022-09-30T03:59:08;5.80;99.90
7518;DHT22;3800;48.922;9.444;2022-09-30T04:01:36;5.70;99.90
7518;DHT22;3800;48.922;9.444;2022-09-30T04:04:04;5.70;99.90
7518;DHT22;3800;48.922;9.444;2022-09-30T04:06:33;5.70;99.90
7518;DHT22;3800;48.922;9.444;2022-09-30T04:09:02;5.60;99.90
7518;DHT22;3800;48.922;9.444;2022-09-30T04:11:31;5.60;99.90
7518;DHT22;3800;48.922;9.444;2022-09-30T04:13:59;5.50;99.90
7518;DHT22;3800;48.922;9.444;2022-09-30T04:16:28;5.40;99.90
7518;DHT22;3800;48.922;9.444;2022-09-30T04:18:57;5.30;99.90
7518;DHT22;3800;48.922;9.444;2022-09-30T04:21:25;5.20;99.90
7518;DHT22;3800;48.922;9.444;2022-09-30T04:23:55;5.10;99.90
7518;DHT22;3800;48.922;9.444;2022-09-30T04:26:24;5.10;99.90
7518;DHT22;3800;48.922;9.444;2022-09-30T04:28:52;5.10;99.90
7518;DHT22;3800;48.922;9.444;2022-09-30T04:31:21;5.10;99.90
7518;DHT22;3800;48.922;9.444;2022-09-30T04:33:49;5.00;99.90
7518;DHT22;3800;48.922;9.444;2022-09-30T04:36:18;5.00;99.90
7518;DHT22;3800;48.922;9.444;2022-09-30T04:38:46;4.90;99.90
7518;DHT22;3800;48.922;9.444;2022-09-30T04:41:15;4.90;99.90
7518;DHT22;3800;48.922;9.444;2022-09-30T04:43:43;4.80;99.90
7518;DHT22;3800;48.922;9.444;2022-09-30T04:46:11;4.90;99.90
7518;DHT22;3800;48.922;9.444;2022-09-30T04:48:40;4.90;99.90
7518;DHT22;3800;48.922;9.444;2022-09-30T04:51:08;4.90;99.90
7518;DHT22;3800;48.922;9.444;2022-09-30T04:53:36;4.90;99.90
7518;DHT22;3800;48.922;9.444;2022-09-30T04:56:05;4.90;99.90
7518;DHT22;3800;48.922;9.444;2022-09-30T04:58:34;5.00;99.90
7518;DHT22;3800;48.922;9.444;2022-09-30T05:01:03;4.90;99.90
7518;DHT22;3800;48.922;9.444;2022-09-30T05:03:31;4.90;99.90
7518;DHT22;3800;48.922;9.444;2022-09-30T05:06:00;4.90;99.90
7518;DHT22;3800;48.922;9.444;2022-09-30T05:08:28;4.90;99.90
7518;DHT22;3800;48.922;9.444;2022-09-30T05:10:57;4.90;99.90
7518;DHT22;3800;48.922;9.444;2022-09-30T05:13:25;4.90;99.90
7518;DHT22;3800;48.922;9.444;2022-09-30T05:15:53;4.90;99.90
7518;DHT22;3800;48.922;9.444;2022-09-30T05:18:21;4.90;99.90
7518;DHT22;3800;48.922;9.444;2022-09-30T05:20:50;4.90;99.90
7518;DHT22;3800;48.922;9.444;2022-09-30T05:23:18;4.80;99.90
7518;DHT22;3800;48.922;9.444;2022-09-30T05:25:46;4.80;99.90
7518;DHT22;3800;48.922;9.444;2022-09-30T05:28:16;4.80;99.90
7518;DHT22;3800;48.922;9.444;2022-09-30T05:30:45;4.80;99.90
7518;DHT22;3800;48.922;9.444;2022-09-30T05:33:13;4.80;99.90
7518;DHT22;3800;48.922;9.444;2022-09-30T05:35:41;4.80;99.90
7518;DHT22;3800;48.922;9.444;2022-09-30T05:38:10;4.80;99.90
7518;DHT22;3800;48.922;9.444;2022-09-30T05:40:38;4.80;99.90
7518;DHT22;3800;48.922;9.444;2022-09-30T05:43:07;4.70;99.90
7518;DHT22;3800;48.922;9.444;2022-09-30T05:45:35;4.70;99.90
7518;DHT22;3800;48.922;9.444;2022-09-30T05:48:04;4.70;99.90
7518;DHT22;3800;48.922;9.444;2022-09-30T05:50:32;4.70;99.90
7518;DHT22;3800;48.922;9.444;2022-09-30T05:53:00;4.80;99.90
7518;DHT22;3800;48.922;9.444;2022-09-30T05:55:29;4.80;99.90
7518;DHT22;3800;48.922;9.444;2022-09-30T05:57:57;4.80;99.90
7518;DHT22;3800;48.922;9.444;2022-09-30T06:00:25;4.90;99.90
7518;DHT22;3800;48.922;9.444;2022-09-30T06:02:55;4.90;99.90
7518;DHT22;3800;48.922;9.444;2022-09-30T06:05:23;5.00;99.90
7518;DHT22;3800;48.922;9.444;2022-09-30T06:07:52;5.00;99.90
7518;DHT22;3800;48.922;9.444;2022-09-30T06:10:20;5.10;99.90
7518;DHT22;3800;48.922;9.444;2022-09-30T06:12:48;5.10;99.90
7518;DHT22;3800;48.922;9.444;2022-09-30T06:15:17;5.20;99.90
7518;DHT22;3800;48.922;9.444;2022-09-30T06:17:50;5.10;99.90
7518;DHT22;3800;48.922;9.444;2022-09-30T06:20:14;5.20;99.90
7518;DHT22;3800;48.922;9.444;2022-09-30T06:22:43;5.20;99.90
7518;DHT22;3800;48.922;9.444;2022-09-30T06:25:11;5.20;99.90
7518;DHT22;3800;48.922;9.444;2022-09-30T06:27:42;5.20;99.90
7518;DHT22;3800;48.922;9.444;2022-09-30T06:30:08;5.20;99.90
7518;DHT22;3800;48.922;9.444;2022-09-30T06:32:37;5.30;99.90
7518;DHT22;3800;48.922;9.444;2022-09-30T06:35:05;5.40;99.90
7518;DHT22;3800;48.922;9.444;2022-09-30T06:37:34;5.40;99.90
7518;DHT22;3800;48.922;9.444;2022-09-30T06:40:03;5.50;99.90
7518;DHT22;3800;48.922;9.444;2022-09-30T06:42:31;5.50;99.90
7518;DHT22;3800;48.922;9.444;2022-09-30T06:44:59;5.60;99.90
7518;DHT22;3800;48.922;9.444;2022-09-30T06:47:29;5.60;99.90
7518;DHT22;3800;48.922;9.444;2022-09-30T06:49:58;5.70;99.90
7518;DHT22;3800;48.922;9.444;2022-09-30T06:52:27;5.80;99.90
7518;DHT22;3800;48.922;9.444;2022-09-30T06:54:57;5.80;99.90
7518;DHT22;3800;48.922;9.444;2022-09-30T06:57:26;5.90;99.90
7518;DHT22;3800;48.922;9.444;2022-09-30T06:59:55;5.90;99.90
7518;DHT22;3800;48.922;9.444;2022-09-30T07:02:24;6.00;99.90
7518;DHT22;3800;48.922;9.444;2022-09-30T07:04:54;6.00;99.90
7518;DHT22;3800;48.922;9.444;2022-09-30T07:07:22;6.10;99.90
7518;DHT22;3800;48.922;9.444;2022-09-30T07:09:51;6.20;99.90
7518;DHT22;3800;48.922;9.444;2022-09-30T07:12:19;6.20;99.90
7518;DHT22;3800;48.922;9.444;2022-09-30T07:14:48;6.20;99.90
7518;DHT22;3800;48.922;9.444;2022-09-30T07:17:17;6.30;99.90
7518;DHT22;3800;48.922;9.444;2022-09-30T07:19:45;6.40;99.90
7518;DHT22;3800;48.922;9.444;2022-09-30T07:22:14;6.40;99.90
7518;DHT22;3800;48.922;9.444;2022-09-30T07:24:48;6.40;99.90
7518;DHT22;3800;48.922;9.444;2022-09-30T07:27:16;6.40;99.90
7518;DHT22;3800;48.922;9.444;2022-09-30T07:29:44;6.50;99.90
7518;DHT22;3800;48.922;9.444;2022-09-30T07:32:13;6.50;99.90
7518;DHT22;3800;48.922;9.444;2022-09-30T07:34:41;6.50;99.90
7518;DHT22;3800;48.922;9.444;2022-09-30T07:37:12;6.60;99.90
7518;DHT22;3800;48.922;9.444;2022-09-30T07:39:40;6.70;99.90
7518;DHT22;3800;48.922;9.444;2022-09-30T07:42:11;6.80;99.90
7518;DHT22;3800;48.922;9.444;2022-09-30T07:44:39;6.90;99.90
7518;DHT22;3800;48.922;9.444;2022-09-30T07:47:13;7.00;99.90
7518;DHT22;3800;48.922;9.444;2022-09-30T07:49:42;7.10;99.90
7518;DHT22;3800;48.922;9.444;2022-09-30T07:52:11;7.30;99.90
7518;DHT22;3800;48.922;9.444;2022-09-30T07:54:39;7.50;99.90
7518;DHT22;3800;48.922;9.444;2022-09-30T07:57:08;7.60;99.90
7518;DHT22;3800;48.922;9.444;2022-09-30T07:59:39;7.80;99.90
7518;DHT22;3800;48.922;9.444;2022-09-30T08:02:10;8.00;99.90
7518;DHT22;3800;48.922;9.444;2022-09-30T08:04:37;8.10;99.90
7518;DHT22;3800;48.922;9.444;2022-09-30T08:07:05;8.30;99.90
7518;DHT22;3800;48.922;9.444;2022-09-30T08:09:33;8.50;99.90
7518;DHT22;3800;48.922;9.444;2022-09-30T08:12:02;8.60;99.90
7518;DHT22;3800;48.922;9.444;2022-09-30T08:14:30;8.80;99.90
7518;DHT22;3800;48.922;9.444;2022-09-30T08:16:58;8.90;99.90
7518;DHT22;3800;48.922;9.444;2022-09-30T08:19:28;9.00;99.90
7518;DHT22;3800;48.922;9.444;2022-09-30T08:21:56;9.10;99.90
7518;DHT22;3800;48.922;9.444;2022-09-30T08:24:25;9.30;99.90
7518;DHT22;3800;48.922;9.444;2022-09-30T08:26:54;9.30;99.90
7518;DHT22;3800;48.922;9.444;2022-09-30T08:29:23;9.40;99.90
7518;DHT22;3800;48.922;9.444;2022-09-30T08:31:51;9.40;99.90
7518;DHT22;3800;48.922;9.444;2022-09-30T08:34:21;9.60;99.90
7518;DHT22;3800;48.922;9.444;2022-09-30T08:36:50;9.60;99.90
7518;DHT22;3800;48.922;9.444;2022-09-30T08:39:18;9.60;99.90
7518;DHT22;3800;48.922;9.444;2022-09-30T08:44:45;9.60;99.90
7518;DHT22;3800;48.922;9.444;2022-09-30T08:47:36;9.60;99.90
7518;DHT22;3800;48.922;9.444;2022-09-30T08:50:07;9.70;99.90
7518;DHT22;3800;48.922;9.444;2022-09-30T08:52:39;9.70;99.90
7518;DHT22;3800;48.922;9.444;2022-09-30T08:55:07;9.80;99.90
7518;DHT22;3800;48.922;9.444;2022-09-30T08:57:36;9.80;99.90
7518;DHT22;3800;48.922;9.444;2022-09-30T09:00:04;9.90;99.90
7518;DHT22;3800;48.922;9.444;2022-09-30T09:02:49;9.90;99.90
7518;DHT22;3800;48.922;9.444;2022-09-30T09:05:23;9.90;99.90
7518;DHT22;3800;48.922;9.444;2022-09-30T09:10:45;10.10;99.90
7518;DHT22;3800;48.922;9.444;2022-09-30T09:16:01;10.20;99.90
7518;DHT22;3800;48.922;9.444;2022-09-30T09:18:57;10.30;99.90
7518;DHT22;3800;48.922;9.444;2022-09-30T09:21:29;10.50;99.90
7518;DHT22;3800;48.922;9.444;2022-09-30T09:23:59;10.50;99.90
7518;DHT22;3800;48.922;9.444;2022-09-30T09:26:28;10.60;99.90
7518;DHT22;3800;48.922;9.444;2022-09-30T09:29:09;10.60;99.90
7518;DHT22;3800;48.922;9.444;2022-09-30T09:31:49;10.80;99.90
7518;DHT22;3800;48.922;9.444;2022-09-30T09:34:18;10.80;99.90
7518;DHT22;3800;48.922;9.444;2022-09-30T09:37:06;10.90;99.90
7518;DHT22;3800;48.922;9.444;2022-09-30T09:39:55;11.10;99.90
7518;DHT22;3800;48.922;9.444;2022-09-30T09:43:00;11.20;99.90
7518;DHT22;3800;48.922;9.444;2022-09-30T09:45:14;11.30;99.90
7518;DHT22;3800;48.922;9.444;2022-09-30T09:47:52;11.40;99.90
7518;DHT22;3800;48.922;9.444;2022-09-30T09:50:25;11.40;99.90
7518;DHT22;3800;48.922;9.444;2022-09-30T09:55:46;11.60;99.90
7518;DHT22;3800;48.922;9.444;2022-09-30T09:58:14;11.60;99.90
7518;DHT22;3800;48.922;9.444;2022-09-30T10:00:42;11.80;99.90
7518;DHT22;3800;48.922;9.444;2022-09-30T10:03:27;11.80;99.90
7518;DHT22;3800;48.922;9.444;2022-09-30T10:06:05;11.80;99.90
7518;DHT22;3800;48.922;9.444;2022-09-30T10:08:33;11.90;99.90
7518;DHT22;3800;48.922;9.444;2022-09-30T10:11:04;11.90;99.90
7518;DHT22;3800;48.922;9.444;2022-09-30T10:13:40;11.90;99.90
7518;DHT22;3800;48.922;9.444;2022-09-30T10:16:21;11.90;99.90
7518;DHT22;3800;48.922;9.444;2022-09-30T10:18:37;12.00;99.90
7518;DHT22;3800;48.922;9.444;2022-09-30T10:23:45;12.10;99.90
7518;DHT22;3800;48.922;9.444;2022-09-30T10:26:18;12.30;99.90
7518;DHT22;3800;48.922;9.444;2022-09-30T10:28:51;12.30;99.90
7518;DHT22;3800;48.922;9.444;2022-09-30T10:31:24;12.50;99.90
7518;DHT22;3800;48.922;9.444;2022-09-30T10:34:08;12.60;99.90
7518;DHT22;3800;48.922;9.444;2022-09-30T10:36:33;12.70;99.90
7518;DHT22;3800;48.922;9.444;2022-09-30T10:39:02;12.60;99.90
7518;DHT22;3800;48.922;9.444;2022-09-30T10:41:30;12.70;99.90
7518;DHT22;3800;48.922;9.444;2022-09-30T10:44:01;12.70;99.90
7518;DHT22;3800;48.922;9.444;2022-09-30T10:46:34;12.70;99.90
7518;DHT22;3800;48.922;9.444;2022-09-30T10:49:06;12.80;99.90
7518;DHT22;3800;48.922;9.444;2022-09-30T10:51:31;12.80;99.90
7518;DHT22;3800;48.922;9.444;2022-09-30T10:53:58;12.90;99.90
7518;DHT22;3800;48.922;9.444;2022-09-30T10:56:35;12.90;99.90
7518;DHT22;3800;48.922;9.444;2022-09-30T10:59:06;13.00;99.90
7518;DHT22;3800;48.922;9.444;2022-09-30T11:01:35;13.20;99.90
7518;DHT22;3800;48.922;9.444;2022-09-30T11:04:26;13.20;99.90
7518;DHT22;3800;48.922;9.444;2022-09-30T11:07:01;13.20;99.90
7518;DHT22;3800;48.922;9.444;2022-09-30T11:09:34;13.20;99.90
7518;DHT22;3800;48.922;9.444;2022-09-30T11:12:04;13.30;99.90
7518;DHT22;3800;48.922;9.444;2022-09-30T11:14:36;13.50;99.90
7518;DHT22;3800;48.922;9.444;2022-09-30T11:17:21;13.60;99.90
7518;DHT22;3800;48.922;9.444;2022-09-30T11:20:10;13.60;99.90
7518;DHT22;3800;48.922;9.444;2022-09-30T11:22:46;13.50;99.90
7518;DHT22;3800;48.922;9.444;2022-09-30T11:25:20;13.50;99.90
7518;DHT22;3800;48.922;9.444;2022-09-30T11:28:17;13.50;99.90
7518;DHT22;3800;48.922;9.444;2022-09-30T11:36:16;13.40;99.90
7518;DHT22;3800;48.922;9.444;2022-09-30T11:41:38;13.50;99.90
7518;DHT22;3800;48.922;9.444;2022-09-30T11:44:27;13.40;99.90
7518;DHT22;3800;48.922;9.444;2022-09-30T11:49:55;13.50;99.90
7518;DHT22;3800;48.922;9.444;2022-09-30T11:55:42;13.50;99.90
7518;DHT22;3800;48.922;9.444;2022-09-30T11:58:16;13.40;99.90
7518;DHT22;3800;48.922;9.444;2022-09-30T12:00:44;13.40;99.90
7518;DHT22;3800;48.922;9.444;2022-09-30T12:03:29;13.30;99.90
7518;DHT22;3800;48.922;9.444;2022-09-30T12:06:02;13.30;99.90
7518;DHT22;3800;48.922;9.444;2022-09-30T12:08:34;13.30;99.90
7518;DHT22;3800;48.922;9.444;2022-09-30T12:11:09;13.20;99.90
7518;DHT22;3800;48.922;9.444;2022-09-30T12:13:39;13.30;99.90
7518;DHT22;3800;48.922;9.444;2022-09-30T12:16:09;13.30;99.90
7518;DHT22;3800;48.922;9.444;2022-09-30T12:18:38;13.30;99.90
7518;DHT22;3800;48.922;9.444;2022-09-30T12:21:13;13.40;99.90
7518;DHT22;3800;48.922;9.444;2022-09-30T12:23:45;13.50;99.90
7518;DHT22;3800;48.922;9.444;2022-09-30T12:26:13;13.50;99.90
7518;DHT22;3800;48.922;9.444;2022-09-30T12:28:53;13.40;99.90
7518;DHT22;3800;48.922;9.444;2022-09-30T12:31:37;13.40;99.90
7518;DHT22;3800;48.922;9.444;2022-09-30T12:34:27;13.40;99.90
7518;DHT22;3800;48.922;9.444;2022-09-30T12:37:03;13.40;99.90
7518;DHT22;3800;48.922;9.444;2022-09-30T12:39:57;13.40;99.90
7518;DHT22;3800;48.922;9.444;2022-09-30T12:48:45;13.50;99.90
7518;DHT22;3800;48.922;9.444;2022-09-30T12:51:33;13.60;99.90
7518;DHT22;3800;48.922;9.444;2022-09-30T12:54:09;13.60;99.90
7518;DHT22;3800;48.922;9.444;2022-09-30T12:56:34;13.60;99.90
7518;DHT22;3800;48.922;9.444;2022-09-30T12:59:02;13.70;99.90
7518;DHT22;3800;48.922;9.444;2022-09-30T13:01:35;13.80;99.90
7518;DHT22;3800;48.922;9.444;2022-09-30T13:04:16;13.80;99.90
7518;DHT22;3800;48.922;9.444;2022-09-30T13:07:07;13.90;99.90
7518;DHT22;3800;48.922;9.444;2022-09-30T13:12:26;14.20;99.90
7518;DHT22;3800;48.922;9.444;2022-09-30T13:15:20;14.40;99.90
7518;DHT22;3800;48.922;9.444;2022-09-30T13:17:22;14.50;99.90
7518;DHT22;3800;48.922;9.444;2022-09-30T13:19:51;14.50;99.90
7518;DHT22;3800;48.922;9.444;2022-09-30T13:22:41;14.60;99.90
7518;DHT22;3800;48.922;9.444;2022-09-30T13:25:13;14.60;99.90
7518;DHT22;3800;48.922;9.444;2022-09-30T13:27:45;14.80;99.90
7518;DHT22;3800;48.922;9.444;2022-09-30T13:30:31;14.80;99.90
7518;DHT22;3800;48.922;9.444;2022-09-30T13:35:50;15.00;99.90
7518;DHT22;3800;48.922;9.444;2022-09-30T13:38:19;14.90;99.90
7518;DHT22;3800;48.922;9.444;2022-09-30T13:40:49;15.00;99.90
7518;DHT22;3800;48.922;9.444;2022-09-30T13:43:40;15.10;99.90
7518;DHT22;3800;48.922;9.444;2022-09-30T13:46:15;15.10;99.90
7518;DHT22;3800;48.922;9.444;2022-09-30T13:48:55;15.20;99.90
7518;DHT22;3800;48.922;9.444;2022-09-30T13:51:23;15.20;99.90
7518;DHT22;3800;48.922;9.444;2022-09-30T13:53:51;15.30;99.90
7518;DHT22;3800;48.922;9.444;2022-09-30T13:56:20;15.30;99.90
7518;DHT22;3800;48.922;9.444;2022-09-30T14:04:47;15.30;99.90
7518;DHT22;3800;48.922;9.444;2022-09-30T14:07:30;15.40;99.90
7518;DHT22;3800;48.922;9.444;2022-09-30T14:10:19;15.60;99.90
7518;DHT22;3800;48.922;9.444;2022-09-30T14:12:55;15.70;99.90
7518;DHT22;3800;48.922;9.444;2022-09-30T14:18:37;15.70;99.90
7518;DHT22;3800;48.922;9.444;2022-09-30T14:21:17;15.70;99.90
7518;DHT22;3800;48.922;9.444;2022-09-30T14:23:44;15.80;99.90
7518;DHT22;3800;48.922;9.444;2022-09-30T14:26:20;15.80;99.90
7518;DHT22;3800;48.922;9.444;2022-09-30T14:29:06;15.70;99.90
7518;DHT22;3800;48.922;9.444;2022-09-30T14:31:32;15.70;99.90
7518;DHT22;3800;48.922;9.444;2022-09-30T14:34:00;15.60;99.90
7518;DHT22;3800;48.922;9.444;2022-09-30T14:36:28;15.60;99.90
7518;DHT22;3800;48.922;9.444;2022-09-30T14:38:58;15.50;99.90
7518;DHT22;3800;48.922;9.444;2022-09-30T14:41:26;15.60;99.90
7518;DHT22;3800;48.922;9.444;2022-09-30T14:43:56;15.50;99.90
7518;DHT22;3800;48.922;9.444;2022-09-30T14:46:25;15.40;99.90
7518;DHT22;3800;48.922;9.444;2022-09-30T14:48:53;15.40;99.90
7518;DHT22;3800;48.922;9.444;2022-09-30T14:51:21;15.40;99.90
7518;DHT22;3800;48.922;9.444;2022-09-30T14:53:53;15.30;99.90
7518;DHT22;3800;48.922;9.444;2022-09-30T14:56:26;15.30;99.90
7518;DHT22;3800;48.922;9.444;2022-09-30T14:58:53;15.30;99.90
7518;DHT22;3800;48.922;9.444;2022-09-30T15:01:22;15.40;99.90
7518;DHT22;3800;48.922;9.444;2022-09-30T15:03:55;15.40;99.90
7518;DHT22;3800;48.922;9.444;2022-09-30T15:06:26;15.30;99.90
7518;DHT22;3800;48.922;9.444;2022-09-30T15:09:00;15.20;99.90
7518;DHT22;3800;48.922;9.444;2022-09-30T15:11:27;15.20;99.90
7518;DHT22;3800;48.922;9.444;2022-09-30T15:13:57;15.20;99.90
7518;DHT22;3800;48.922;9.444;2022-09-30T15:16:25;15.20;99.90
7518;DHT22;3800;48.922;9.444;2022-09-30T15:18:53;15.10;99.90
7518;DHT22;3800;48.922;9.444;2022-09-30T15:21:23;15.10;99.90
7518;DHT22;3800;48.922;9.444;2022-09-30T15:23:54;15.10;99.90
7518;DHT22;3800;48.922;9.444;2022-09-30T15:26:22;15.10;99.90
7518;DHT22;3800;48.922;9.444;2022-09-30T15:28:49;15.00;99.90
7518;DHT22;3800;48.922;9.444;2022-09-30T15:31:26;15.00;99.90
7518;DHT22;3800;48.922;9.444;2022-09-30T15:34:05;14.90;99.90
7518;DHT22;3800;48.922;9.444;2022-09-30T15:36:34;15.00;99.90
7518;DHT22;3800;48.922;9.444;2022-09-30T15:39:03;14.90;99.90
7518;DHT22;3800;48.922;9.444;2022-09-30T15:41:38;14.90;99.90
7518;DHT22;3800;48.922;9.444;2022-09-30T15:44:15;14.90;99.90
7518;DHT22;3800;48.922;9.444;2022-09-30T15:47:14;14.90;99.90
7518;DHT22;3800;48.922;9.444;2022-09-30T15:49:30;14.80;99.90
7518;DHT22;3800;48.922;9.444;2022-09-30T15:52:18;14.80;99.90
7518;DHT22;3800;48.922;9.444;2022-09-30T15:54:33;14.80;99.90
7518;DHT22;3800;48.922;9.444;2022-09-30T15:56:58;14.70;99.90
7518;DHT22;3800;48.922;9.444;2022-09-30T16:02:22;14.60;99.90
7518;DHT22;3800;48.922;9.444;2022-09-30T16:04:51;14.50;99.90
7518;DHT22;3800;48.922;9.444;2022-09-30T16:07:22;14.50;99.90
7518;DHT22;3800;48.922;9.444;2022-09-30T16:09:52;14.50;99.90
7518;DHT22;3800;48.922;9.444;2022-09-30T16:12:21;14.40;99.90
7518;DHT22;3800;48.922;9.444;2022-09-30T16:14:52;14.40;99.90
7518;DHT22;3800;48.922;9.444;2022-09-30T16:17:30;14.30;99.90
7518;DHT22;3800;48.922;9.444;2022-09-30T16:20:00;14.30;99.90
7518;DHT22;3800;48.922;9.444;2022-09-30T16:22:33;14.20;99.90
7518;DHT22;3800;48.922;9.444;2022-09-30T16:25:27;14.20;99.90
7518;DHT22;3800;48.922;9.444;2022-09-30T16:27:59;14.10;99.90
7518;DHT22;3800;48.922;9.444;2022-09-30T16:30:26;14.10;99.90
7518;DHT22;3800;48.922;9.444;2022-09-30T16:32:55;14.10;99.90
7518;DHT22;3800;48.922;9.444;2022-09-30T16:35:25;14.00;99.90
7518;DHT22;3800;48.922;9.444;2022-09-30T16:37:58;14.00;99.90
7518;DHT22;3800;48.922;9.444;2022-09-30T16:40:27;14.00;99.90
7518;DHT22;3800;48.922;9.444;2022-09-30T16:42:55;13.90;99.90
7518;DHT22;3800;48.922;9.444;2022-09-30T16:45:27;13.90;99.90
7518;DHT22;3800;48.922;9.444;2022-09-30T16:47:57;13.80;99.90
7518;DHT22;3800;48.922;9.444;2022-09-30T16:50:34;13.80;99.90
7518;DHT22;3800;48.922;9.444;2022-09-30T16:53:01;13.70;99.90
7518;DHT22;3800;48.922;9.444;2022-09-30T16:55:29;13.70;99.90
7518;DHT22;3800;48.922;9.444;2022-09-30T16:57:58;13.60;99.90
7518;DHT22;3800;48.922;9.444;2022-09-30T17:00:27;13.60;99.90
7518;DHT22;3800;48.922;9.444;2022-09-30T17:02:55;13.50;99.90
7518;DHT22;3800;48.922;9.444;2022-09-30T17:05:24;13.40;99.90
7518;DHT22;3800;48.922;9.444;2022-09-30T17:07:55;13.40;99.90
7518;DHT22;3800;48.922;9.444;2022-09-30T17:10:27;13.30;99.90
7518;DHT22;3800;48.922;9.444;2022-09-30T17:12:54;13.30;99.90
7518;DHT22;3800;48.922;9.444;2022-09-30T17:15:24;13.00;99.90
7518;DHT22;3800;48.922;9.444;2022-09-30T17:17:52;12.90;99.90
7518;DHT22;3800;48.922;9.444;2022-09-30T17:20:20;12.80;99.90
7518;DHT22;3800;48.922;9.444;2022-09-30T17:22:49;12.70;99.90
7518;DHT22;3800;48.922;9.444;2022-09-30T17:25:18;12.50;99.90
7518;DHT22;3800;48.922;9.444;2022-09-30T17:27:46;12.50;99.90
7518;DHT22;3800;48.922;9.444;2022-09-30T17:30:18;12.40;99.90
7518;DHT22;3800;48.922;9.444;2022-09-30T17:32:46;12.40;99.90
7518;DHT22;3800;48.922;9.444;2022-09-30T17:35:15;12.10;99.90
7518;DHT22;3800;48.922;9.444;2022-09-30T17:37:43;12.10;99.90
7518;DHT22;3800;48.922;9.444;2022-09-30T17:40:11;11.90;99.90
7518;DHT22;3800;48.922;9.444;2022-09-30T17:42:45;11.80;99.90
7518;DHT22;3800;48.922;9.444;2022-09-30T17:45:19;11.80;99.90
7518;DHT22;3800;48.922;9.444;2022-09-30T17:47:47;11.70;99.90